sensor_id;sensor_type;location;lat;lon;timestamp;pressure;altitude;pressure_sealevel;temperature;humidity
40994;BME280;26722;43.212;27.932;2023-02-05T00:02:24;55356.78;;;-146.72;77.43
40994;BME280;26722;43.212;27.932;2023-02-05T00:04:50;55375.78;;;-146.72;77.17
40994;BME280;26722;43.212;27.932;2023-02-05T00:07:15;55354.66;;;-146.72;77.80
40994;BME280;26722;43.212;27.932;2023-02-05T00:09:40;55386.34;;;-146.72;76.99
40994;BME280;26722;43.212;27.932;2023-02-05T00:12:06;55384.22;;;-146.72;76.52
40994;BME280;26722;43.212;27.932;2023-02-05T00:14:32;55380.00;;;-146.72;76.54
40994;BME280;26722;43.212;27.932;2023-02-05T00:16:57;55352.56;;;-146.72;76.42
40994;BME280;26722;43.212;27.932;2023-02-05T00:19:23;55377.91;;;-146.72;76.19
40994;BME280;26722;43.212;27.932;2023-02-05T00:21:49;55369.44;;;-146.72;75.98
40994;BME280;26722;43.212;27.932;2023-02-05T00:24:14;55369.44;;;-146.72;75.98
40994;BME280;26722;43.212;27.932;2023-02-05T00:26:40;55390.56;;;-146.72;76.26
40994;BME280;26722;43.212;27.932;2023-02-05T00:29:05;55369.44;;;-146.72;76.29
40994;BME280;26722;43.212;27.932;2023-02-05T00:31:31;55380.00;;;-146.72;76.23
40994;BME280;26722;43.212;27.932;2023-02-05T00:33:56;55375.78;;;-146.72;76.47
40994;BME280;26722;43.212;27.932;2023-02-05T00:36:22;55369.44;;;-146.72;76.14
40994;BME280;26722;43.212;27.932;2023-02-05T00:38:48;55373.69;;;-146.72;76.31
40994;BME280;26722;43.212;27.932;2023-02-05T00:41:15;55392.69;;;-146.72;76.23
40994;BME280;26722;43.212;27.932;2023-02-05T00:43:41;55371.56;;;-146.72;75.75
40994;BME280;26722;43.212;27.932;2023-02-05T00:46:07;55382.13;;;-146.72;75.54
40994;BME280;26722;43.212;27.932;2023-02-05T00:48:33;55365.22;;;-146.72;75.30
40994;BME280;26722;43.212;27.932;2023-02-05T00:50:58;55386.34;;;-146.72;75.12
40994;BME280;26722;43.212;27.932;2023-02-05T00:53:24;55373.69;;;-146.72;75.12
40994;BME280;26722;43.212;27.932;2023-02-05T00:55:50;55377.91;;;-146.72;74.97
40994;BME280;26722;43.212;27.932;2023-02-05T00:58:16;55382.13;;;-146.72;74.90
40994;BME280;26722;43.212;27.932;2023-02-05T01:00:42;55382.13;;;-146.72;74.22
40994;BME280;26722;43.212;27.932;2023-02-05T01:03:08;55394.78;;;-146.72;74.23
40994;BME280;26722;43.212;27.932;2023-02-05T01:05:35;55390.56;;;-146.72;74.38
40994;BME280;26722;43.212;27.932;2023-02-05T01:08:01;55382.13;;;-146.72;74.15
40994;BME280;26722;43.212;27.932;2023-02-05T01:10:27;55394.78;;;-146.72;73.93
40994;BME280;26722;43.212;27.932;2023-02-05T01:12:53;55399.00;;;-146.72;73.86
40994;BME280;26722;43.212;27.932;2023-02-05T01:15:19;55426.47;;;-146.72;77.61
40994;BME280;26722;43.212;27.932;2023-02-05T01:17:45;55354.66;;;-146.72;75.07
40994;BME280;26722;43.212;27.932;2023-02-05T01:20:11;55371.56;;;-146.72;74.23
40994;BME280;26722;43.212;27.932;2023-02-05T01:22:37;55375.78;;;-146.72;73.94
40994;BME280;26722;43.212;27.932;2023-02-05T01:25:03;55382.13;;;-146.72;74.46
40994;BME280;26722;43.212;27.932;2023-02-05T01:27:31;55401.13;;;-146.72;73.81
40994;BME280;26722;43.212;27.932;2023-02-05T01:29:56;55415.91;;;-146.72;73.83
40994;BME280;26722;43.212;27.932;2023-02-05T01:32:22;55386.34;;;-146.72;73.87
40994;BME280;26722;43.212;27.932;2023-02-05T01:34:47;55388.47;;;-146.72;73.79
40994;BME280;26722;43.212;27.932;2023-02-05T01:37:13;55407.47;;;-146.72;73.55
40994;BME280;26722;43.212;27.932;2023-02-05T01:39:38;55386.34;;;-146.72;73.10
40994;BME280;26722;43.212;27.932;2023-02-05T01:42:15;55373.69;;;-146.72;81.53
40994;BME280;26722;43.212;27.932;2023-02-05T01:44:41;55390.56;;;-146.72;84.43
40994;BME280;26722;43.212;27.932;2023-02-05T01:47:06;55399.00;;;-146.72;84.41
40994;BME280;26722;43.212;27.932;2023-02-05T01:49:37;55390.56;;;-146.72;79.99
40994;BME280;26722;43.212;27.932;2023-02-05T01:52:12;55377.91;;;-146.72;75.45
40994;BME280;26722;43.212;27.932;2023-02-05T01:54:44;55401.13;;;-146.72;74.02
40994;BME280;26722;43.212;27.932;2023-02-05T01:57:17;55390.56;;;-146.72;72.42
40994;BME280;26722;43.212;27.932;2023-02-05T01:59:44;55390.56;;;-146.72;71.97
40994;BME280;26722;43.212;27.932;2023-02-05T02:02:12;55365.22;;;-146.72;72.34
40994;BME280;26722;43.212;27.932;2023-02-05T02:04:51;55390.56;;;-146.72;72.49
40994;BME280;26722;43.212;27.932;2023-02-05T02:07:20;55388.47;;;-146.72;72.64
40994;BME280;26722;43.212;27.932;2023-02-05T02:09:48;55384.22;;;-146.72;72.19
40994;BME280;26722;43.212;27.932;2023-02-05T02:12:17;55386.34;;;-146.72;77.21
40994;BME280;26722;43.212;27.932;2023-02-05T02:14:46;55405.34;;;-146.72;72.75
40994;BME280;26722;43.212;27.932;2023-02-05T02:17:15;55394.78;;;-146.72;71.91
40994;BME280;26722;43.212;27.932;2023-02-05T02:20:01;55420.13;;;-146.72;71.19
40994;BME280;26722;43.212;27.932;2023-02-05T02:28:12;55396.91;;;-146.72;70.23
40994;BME280;26722;43.212;27.932;2023-02-05T02:30:45;55407.47;;;-146.72;69.55
40994;BME280;26722;43.212;27.932;2023-02-05T02:33:24;55409.56;;;-146.72;69.74
40994;BME280;26722;43.212;27.932;2023-02-05T02:41:09;55409.56;;;-146.72;68.84
40994;BME280;26722;43.212;27.932;2023-02-05T02:43:47;55405.34;;;-146.72;68.90
40994;BME280;26722;43.212;27.932;2023-02-05T02:46:36;55394.78;;;-146.72;69.12
40994;BME280;26722;43.212;27.932;2023-02-05T02:49:05;55403.25;;;-146.72;68.83
40994;BME280;26722;43.212;27.932;2023-02-05T02:51:35;55405.34;;;-146.72;68.92
40994;BME280;26722;43.212;27.932;2023-02-05T02:54:05;55424.34;;;-146.72;68.73
40994;BME280;26722;43.212;27.932;2023-02-05T02:56:32;55399.00;;;-146.72;69.02
40994;BME280;26722;43.212;27.932;2023-02-05T02:59:07;55382.13;;;-146.72;68.38
40994;BME280;26722;43.212;27.932;2023-02-05T03:01:37;55403.25;;;-146.72;68.73
40994;BME280;26722;43.212;27.932;2023-02-05T03:04:08;55418.00;;;-146.72;68.44
40994;BME280;26722;43.212;27.932;2023-02-05T03:06:37;55415.91;;;-146.72;68.56
40994;BME280;26722;43.212;27.932;2023-02-05T03:09:30;55403.25;;;-146.72;67.96
40994;BME280;26722;43.212;27.932;2023-02-05T03:11:57;55401.13;;;-146.72;67.87
40994;BME280;26722;43.212;27.932;2023-02-05T03:14:23;55411.69;;;-146.72;67.51
40994;BME280;26722;43.212;27.932;2023-02-05T03:16:48;55437.03;;;-146.72;67.24
40994;BME280;26722;43.212;27.932;2023-02-05T03:19:15;55405.34;;;-146.72;67.07
40994;BME280;26722;43.212;27.932;2023-02-05T03:21:43;55453.91;;;-146.72;66.51
40994;BME280;26722;43.212;27.932;2023-02-05T03:24:11;55411.69;;;-146.72;66.51
40994;BME280;26722;43.212;27.932;2023-02-05T03:26:37;55403.25;;;-146.72;66.10
40994;BME280;26722;43.212;27.932;2023-02-05T03:29:05;55411.69;;;-146.72;66.42
40994;BME280;26722;43.212;27.932;2023-02-05T03:34:21;55439.13;;;-146.72;66.10
40994;BME280;26722;43.212;27.932;2023-02-05T03:36:54;55394.78;;;-146.72;66.20
40994;BME280;26722;43.212;27.932;2023-02-05T03:45:31;55415.91;;;-146.72;65.34
40994;BME280;26722;43.212;27.932;2023-02-05T03:48:13;55407.47;;;-146.72;65.08
40994;BME280;26722;43.212;27.932;2023-02-05T03:53:35;55407.47;;;-146.72;64.97
40994;BME280;26722;43.212;27.932;2023-02-05T03:59:15;55394.78;;;-146.72;65.01
40994;BME280;26722;43.212;27.932;2023-02-05T04:01:43;55407.47;;;-146.72;65.06
40994;BME280;26722;43.212;27.932;2023-02-05T04:04:10;55401.13;;;-146.72;65.01
40994;BME280;26722;43.212;27.932;2023-02-05T04:06:35;55428.56;;;-146.72;64.92
40994;BME280;26722;43.212;27.932;2023-02-05T04:09:01;55424.34;;;-146.72;64.97
40994;BME280;26722;43.212;27.932;2023-02-05T04:11:26;55403.25;;;-146.72;65.40
40994;BME280;26722;43.212;27.932;2023-02-05T04:13:52;55445.47;;;-146.72;65.47
40994;BME280;26722;43.212;27.932;2023-02-05T04:16:17;55409.56;;;-146.72;65.95
40994;BME280;26722;43.212;27.932;2023-02-05T04:18:43;55439.13;;;-146.72;66.26
40994;BME280;26722;43.212;27.932;2023-02-05T04:21:08;55437.03;;;-146.72;66.13
40994;BME280;26722;43.212;27.932;2023-02-05T04:23:33;55413.78;;;-146.72;66.29
40994;BME280;26722;43.212;27.932;2023-02-05T04:25:59;55424.34;;;-146.72;66.28
40994;BME280;26722;43.212;27.932;2023-02-05T04:28:24;55415.91;;;-146.72;66.29
40994;BME280;26722;43.212;27.932;2023-02-05T04:30:50;55428.56;;;-146.72;66.29
40994;BME280;26722;43.212;27.932;2023-02-05T04:33:15;55407.47;;;-146.72;66.19
40994;BME280;26722;43.212;27.932;2023-02-05T04:35:41;55396.91;;;-146.72;66.15
40994;BME280;26722;43.212;27.932;2023-02-05T04:38:06;55428.56;;;-146.72;66.16
40994;BME280;26722;43.212;27.932;2023-02-05T04:40:32;55432.78;;;-146.72;66.25
40994;BME280;26722;43.212;27.932;2023-02-05T04:42:57;55411.69;;;-146.72;66.23
40994;BME280;26722;43.212;27.932;2023-02-05T04:45:22;55430.69;;;-146.72;66.21
40994;BME280;26722;43.212;27.932;2023-02-05T04:47:50;55432.78;;;-146.72;66.16
40994;BME280;26722;43.212;27.932;2023-02-05T04:50:16;55426.47;;;-146.72;66.13
40994;BME280;26722;43.212;27.932;2023-02-05T04:52:42;55420.13;;;-146.72;66.50
40994;BME280;26722;43.212;27.932;2023-02-05T04:55:07;55432.78;;;-146.72;66.47
40994;BME280;26722;43.212;27.932;2023-02-05T04:57:33;55453.91;;;-146.72;66.36
40994;BME280;26722;43.212;27.932;2023-02-05T04:59:58;55411.69;;;-146.72;66.14
40994;BME280;26722;43.212;27.932;2023-02-05T05:02:24;55437.03;;;-146.72;66.18
40994;BME280;26722;43.212;27.932;2023-02-05T05:04:49;55418.00;;;-146.72;66.49
40994;BME280;26722;43.212;27.932;2023-02-05T05:07:15;55432.78;;;-146.72;66.30
40994;BME280;26722;43.212;27.932;2023-02-05T05:09:40;55426.47;;;-146.72;66.46
40994;BME280;26722;43.212;27.932;2023-02-05T05:12:06;55399.00;;;-146.72;66.03
40994;BME280;26722;43.212;27.932;2023-02-05T05:14:31;55437.03;;;-146.72;66.20
40994;BME280;26722;43.212;27.932;2023-02-05T05:16:57;55426.47;;;-146.72;66.14
40994;BME280;26722;43.212;27.932;2023-02-05T05:19:22;55437.03;;;-146.72;66.18
40994;BME280;26722;43.212;27.932;2023-02-05T05:21:48;55415.91;;;-146.72;66.22
40994;BME280;26722;43.212;27.932;2023-02-05T05:24:13;55466.59;;;-146.72;66.31
40994;BME280;26722;43.212;27.932;2023-02-05T05:26:39;55432.78;;;-146.72;66.20
40994;BME280;26722;43.212;27.932;2023-02-05T05:29:12;55420.13;;;-146.72;66.06
40994;BME280;26722;43.212;27.932;2023-02-05T05:31:39;55424.34;;;-146.72;66.13
40994;BME280;26722;43.212;27.932;2023-02-05T05:34:04;55426.47;;;-146.72;66.15
40994;BME280;26722;43.212;27.932;2023-02-05T05:36:30;55432.78;;;-146.72;65.94
40994;BME280;26722;43.212;27.932;2023-02-05T05:38:55;55418.00;;;-146.72;65.98
40994;BME280;26722;43.212;27.932;2023-02-05T05:41:41;55424.34;;;-146.72;65.91
40994;BME280;26722;43.212;27.932;2023-02-05T05:44:24;55434.91;;;-146.72;65.91
40994;BME280;26722;43.212;27.932;2023-02-05T05:46:50;55415.91;;;-146.72;65.84
40994;BME280;26722;43.212;27.932;2023-02-05T05:49:15;55437.03;;;-146.72;65.78
40994;BME280;26722;43.212;27.932;2023-02-05T05:51:41;55441.25;;;-146.72;65.88
40994;BME280;26722;43.212;27.932;2023-02-05T05:54:06;55420.13;;;-146.72;65.45
40994;BME280;26722;43.212;27.932;2023-02-05T05:56:32;55407.47;;;-146.72;65.61
40994;BME280;26722;43.212;27.932;2023-02-05T05:58:57;55439.13;;;-146.72;65.30
40994;BME280;26722;43.212;27.932;2023-02-05T06:01:23;55420.13;;;-146.72;65.40
40994;BME280;26722;43.212;27.932;2023-02-05T06:03:49;55428.56;;;-146.72;65.50
40994;BME280;26722;43.212;27.932;2023-02-05T06:06:14;55437.03;;;-146.72;65.19
40994;BME280;26722;43.212;27.932;2023-02-05T06:08:40;55441.25;;;-146.72;65.11
40994;BME280;26722;43.212;27.932;2023-02-05T06:11:05;55415.91;;;-146.72;65.42
40994;BME280;26722;43.212;27.932;2023-02-05T06:13:31;55432.78;;;-146.72;65.22
40994;BME280;26722;43.212;27.932;2023-02-05T06:15:56;55437.03;;;-146.72;65.10
40994;BME280;26722;43.212;27.932;2023-02-05T06:18:22;55415.91;;;-146.72;65.04
40994;BME280;26722;43.212;27.932;2023-02-05T06:20:48;55451.81;;;-146.72;64.78
40994;BME280;26722;43.212;27.932;2023-02-05T06:23:13;55426.47;;;-146.72;65.03
40994;BME280;26722;43.212;27.932;2023-02-05T06:25:39;55434.91;;;-146.72;64.64
40994;BME280;26722;43.212;27.932;2023-02-05T06:28:04;55443.34;;;-146.72;64.80
40994;BME280;26722;43.212;27.932;2023-02-05T06:30:30;55424.34;;;-146.72;64.75
40994;BME280;26722;43.212;27.932;2023-02-05T06:32:55;55439.13;;;-146.72;64.18
40994;BME280;26722;43.212;27.932;2023-02-05T06:35:22;55432.78;;;-146.72;64.14
40994;BME280;26722;43.212;27.932;2023-02-05T06:37:47;55441.25;;;-146.72;63.97
40994;BME280;26722;43.212;27.932;2023-02-05T06:40:14;55437.03;;;-146.72;63.98
40994;BME280;26722;43.212;27.932;2023-02-05T06:42:40;55445.47;;;-146.72;64.10
40994;BME280;26722;43.212;27.932;2023-02-05T06:45:05;55437.03;;;-146.72;63.80
40994;BME280;26722;43.212;27.932;2023-02-05T06:47:31;55422.25;;;-146.72;63.68
40994;BME280;26722;43.212;27.932;2023-02-05T06:49:56;55428.56;;;-146.72;63.32
40994;BME280;26722;43.212;27.932;2023-02-05T06:52:22;55439.13;;;-146.72;63.50
40994;BME280;26722;43.212;27.932;2023-02-05T06:54:47;55451.81;;;-146.72;63.57
40994;BME280;26722;43.212;27.932;2023-02-05T06:57:13;55437.03;;;-146.72;63.47
40994;BME280;26722;43.212;27.932;2023-02-05T06:59:38;55437.03;;;-146.72;63.57
40994;BME280;26722;43.212;27.932;2023-02-05T07:02:04;55449.69;;;-146.72;63.43
40994;BME280;26722;43.212;27.932;2023-02-05T07:04:29;55437.03;;;-146.72;63.23
40994;BME280;26722;43.212;27.932;2023-02-05T07:06:56;55424.34;;;-146.72;63.16
40994;BME280;26722;43.212;27.932;2023-02-05T07:09:23;55443.34;;;-146.72;62.89
40994;BME280;26722;43.212;27.932;2023-02-05T07:11:48;55428.56;;;-146.72;63.01
40994;BME280;26722;43.212;27.932;2023-02-05T07:14:14;55443.34;;;-146.72;62.80
40994;BME280;26722;43.212;27.932;2023-02-05T07:16:39;55430.69;;;-146.72;62.80
40994;BME280;26722;43.212;27.932;2023-02-05T07:19:05;55456.03;;;-146.72;62.90
40994;BME280;26722;43.212;27.932;2023-02-05T07:21:31;55432.78;;;-146.72;63.09
40994;BME280;26722;43.212;27.932;2023-02-05T07:23:56;55449.69;;;-146.72;62.84
40994;BME280;26722;43.212;27.932;2023-02-05T07:26:22;55434.91;;;-146.72;62.76
40994;BME280;26722;43.212;27.932;2023-02-05T07:28:48;55430.69;;;-146.72;62.35
40994;BME280;26722;43.212;27.932;2023-02-05T07:31:16;55458.13;;;-146.72;62.52
40994;BME280;26722;43.212;27.932;2023-02-05T07:33:43;55441.25;;;-146.72;62.49
40994;BME280;26722;43.212;27.932;2023-02-05T07:36:11;55424.34;;;-146.72;62.54
40994;BME280;26722;43.212;27.932;2023-02-05T07:38:38;55437.03;;;-146.72;62.54
40994;BME280;26722;43.212;27.932;2023-02-05T07:41:05;55411.69;;;-146.72;62.00
40994;BME280;26722;43.212;27.932;2023-02-05T07:43:30;55441.25;;;-146.72;61.95
40994;BME280;26722;43.212;27.932;2023-02-05T07:46:01;55426.47;;;-146.72;61.72
40994;BME280;26722;43.212;27.932;2023-02-05T07:48:27;55428.56;;;-146.72;61.44
40994;BME280;26722;43.212;27.932;2023-02-05T07:50:53;55445.47;;;-146.72;61.82
40994;BME280;26722;43.212;27.932;2023-02-05T07:53:18;55434.91;;;-146.72;61.47
40994;BME280;26722;43.212;27.932;2023-02-05T07:55:44;55464.47;;;-146.72;61.08
40994;BME280;26722;43.212;27.932;2023-02-05T07:58:09;55443.34;;;-146.72;60.72
40994;BME280;26722;43.212;27.932;2023-02-05T08:00:35;55428.56;;;-146.72;60.37
40994;BME280;26722;43.212;27.932;2023-02-05T08:03:01;55420.13;;;-146.72;59.70
40994;BME280;26722;43.212;27.932;2023-02-05T08:05:26;55420.13;;;-146.72;59.44
40994;BME280;26722;43.212;27.932;2023-02-05T08:07:52;55432.78;;;-146.72;59.21
40994;BME280;26722;43.212;27.932;2023-02-05T08:10:18;55449.69;;;-146.72;59.01
40994;BME280;26722;43.212;27.932;2023-02-05T08:12:44;55430.69;;;-146.72;59.11
40994;BME280;26722;43.212;27.932;2023-02-05T08:15:09;55443.34;;;-146.72;58.61
40994;BME280;26722;43.212;27.932;2023-02-05T08:17:35;55411.69;;;-146.72;58.60
40994;BME280;26722;43.212;27.932;2023-02-05T08:20:00;55432.78;;;-146.72;58.42
40994;BME280;26722;43.212;27.932;2023-02-05T08:22:36;55396.91;;;-146.72;57.81
40994;BME280;26722;43.212;27.932;2023-02-05T08:25:04;55445.47;;;-146.72;57.77
40994;BME280;26722;43.212;27.932;2023-02-05T08:27:35;55405.34;;;-146.72;57.47
40994;BME280;26722;43.212;27.932;2023-02-05T08:30:07;55424.34;;;-146.72;57.15
40994;BME280;26722;43.212;27.932;2023-02-05T08:32:33;55449.69;;;-146.72;57.01
40994;BME280;26722;43.212;27.932;2023-02-05T08:34:58;55437.03;;;-146.72;56.79
40994;BME280;26722;43.212;27.932;2023-02-05T08:37:24;55432.78;;;-146.72;56.51
40994;BME280;26722;43.212;27.932;2023-02-05T08:39:51;55434.91;;;-146.72;56.15
40994;BME280;26722;43.212;27.932;2023-02-05T08:42:16;55441.25;;;-146.72;55.41
40994;BME280;26722;43.212;27.932;2023-02-05T08:44:43;55428.56;;;-146.72;55.04
40994;BME280;26722;43.212;27.932;2023-02-05T08:47:08;55411.69;;;-146.72;55.10
40994;BME280;26722;43.212;27.932;2023-02-05T08:49:34;55388.47;;;-146.72;53.89
40994;BME280;26722;43.212;27.932;2023-02-05T08:51:59;55428.56;;;-146.72;54.06
40994;BME280;26722;43.212;27.932;2023-02-05T08:54:25;55411.69;;;-146.72;53.61
40994;BME280;26722;43.212;27.932;2023-02-05T08:56:51;55415.91;;;-146.72;53.15
40994;BME280;26722;43.212;27.932;2023-02-05T08:59:17;55411.69;;;-146.72;51.84
40994;BME280;26722;43.212;27.932;2023-02-05T09:01:43;55411.69;;;-146.72;51.32
40994;BME280;26722;43.212;27.932;2023-02-05T09:04:14;55411.69;;;-146.72;50.99
40994;BME280;26722;43.212;27.932;2023-02-05T09:06:40;55420.13;;;-146.72;50.69
40994;BME280;26722;43.212;27.932;2023-02-05T09:09:06;55424.34;;;-146.72;50.88
40994;BME280;26722;43.212;27.932;2023-02-05T09:11:31;55420.13;;;-146.72;51.05
40994;BME280;26722;43.212;27.932;2023-02-05T09:13:57;55390.56;;;-146.72;50.24
40994;BME280;26722;43.212;27.932;2023-02-05T09:16:23;55407.47;;;-146.72;49.77
40994;BME280;26722;43.212;27.932;2023-02-05T09:18:49;55407.47;;;-146.72;48.90
40994;BME280;26722;43.212;27.932;2023-02-05T09:21:15;55411.69;;;-146.72;49.34
40994;BME280;26722;43.212;27.932;2023-02-05T09:23:40;55411.69;;;-146.72;49.76
40994;BME280;26722;43.212;27.932;2023-02-05T09:26:06;55426.47;;;-146.72;49.47
40994;BME280;26722;43.212;27.932;2023-02-05T09:28:34;55432.78;;;-146.72;49.58
40994;BME280;26722;43.212;27.932;2023-02-05T09:31:07;55411.69;;;-146.72;49.53
40994;BME280;26722;43.212;27.932;2023-02-05T09:33:32;55411.69;;;-146.72;48.69
40994;BME280;26722;43.212;27.932;2023-02-05T09:36:04;55424.34;;;-146.72;49.02
40994;BME280;26722;43.212;27.932;2023-02-05T09:38:30;55418.00;;;-146.72;48.04
40994;BME280;26722;43.212;27.932;2023-02-05T09:40:59;55413.78;;;-146.72;48.32
40994;BME280;26722;43.212;27.932;2023-02-05T09:43:56;55403.25;;;-146.72;47.96
40994;BME280;26722;43.212;27.932;2023-02-05T09:47:02;55394.78;;;-146.72;47.65
40994;BME280;26722;43.212;27.932;2023-02-05T09:49:52;55411.69;;;-146.72;47.46
40994;BME280;26722;43.212;27.932;2023-02-05T09:52:29;55422.25;;;-146.72;47.65
40994;BME280;26722;43.212;27.932;2023-02-05T09:55:20;55411.69;;;-146.72;47.24
40994;BME280;26722;43.212;27.932;2023-02-05T09:57:48;55418.00;;;-146.72;46.96
40994;BME280;26722;43.212;27.932;2023-02-05T10:00:20;55403.25;;;-146.72;46.81
40994;BME280;26722;43.212;27.932;2023-02-05T10:03:00;55396.91;;;-146.72;47.67
40994;BME280;26722;43.212;27.932;2023-02-05T10:05:31;55405.34;;;-146.72;47.03
40994;BME280;26722;43.212;27.932;2023-02-05T10:10:56;55403.25;;;-146.72;47.26
40994;BME280;26722;43.212;27.932;2023-02-05T10:22:11;55407.47;;;-146.72;46.73
40994;BME280;26722;43.212;27.932;2023-02-05T10:27:32;55390.56;;;-146.72;46.76
40994;BME280;26722;43.212;27.932;2023-02-05T10:30:29;55399.00;;;-146.72;47.16
40994;BME280;26722;43.212;27.932;2023-02-05T10:33:04;55411.69;;;-146.72;47.52
40994;BME280;26722;43.212;27.932;2023-02-05T10:35:59;55403.25;;;-146.72;47.34
40994;BME280;26722;43.212;27.932;2023-02-05T10:38:28;55424.34;;;-146.72;47.36
40994;BME280;26722;43.212;27.932;2023-02-05T10:41:12;55394.78;;;-146.72;47.59
40994;BME280;26722;43.212;27.932;2023-02-05T10:43:46;55399.00;;;-146.72;48.32
40994;BME280;26722;43.212;27.932;2023-02-05T10:46:15;55386.34;;;-146.72;48.30
40994;BME280;26722;43.212;27.932;2023-02-05T10:49:10;55401.13;;;-146.72;48.45
40994;BME280;26722;43.212;27.932;2023-02-05T10:51:43;55413.78;;;-146.72;48.17
40994;BME280;26722;43.212;27.932;2023-02-05T10:54:29;55424.34;;;-146.72;48.33
40994;BME280;26722;43.212;27.932;2023-02-05T10:56:56;55377.91;;;-146.72;47.90
40994;BME280;26722;43.212;27.932;2023-02-05T10:59:26;55415.91;;;-146.72;48.47
40994;BME280;26722;43.212;27.932;2023-02-05T11:01:54;55411.69;;;-146.72;49.04
40994;BME280;26722;43.212;27.932;2023-02-05T11:04:41;55415.91;;;-146.72;48.75
40994;BME280;26722;43.212;27.932;2023-02-05T11:07:12;55388.47;;;-146.72;48.48
40994;BME280;26722;43.212;27.932;2023-02-05T11:09:38;55380.00;;;-146.72;48.52
40994;BME280;26722;43.212;27.932;2023-02-05T11:12:15;55382.13;;;-146.72;49.28
40994;BME280;26722;43.212;27.932;2023-02-05T11:14:45;55401.13;;;-146.72;49.58
40994;BME280;26722;43.212;27.932;2023-02-05T11:17:21;55411.69;;;-146.72;50.16
40994;BME280;26722;43.212;27.932;2023-02-05T11:19:57;55422.25;;;-146.72;49.94
40994;BME280;26722;43.212;27.932;2023-02-05T11:22:27;55394.78;;;-146.72;50.17
40994;BME280;26722;43.212;27.932;2023-02-05T11:25:20;55394.78;;;-146.72;50.57
40994;BME280;26722;43.212;27.932;2023-02-05T11:28:01;55403.25;;;-146.72;50.21
40994;BME280;26722;43.212;27.932;2023-02-05T11:30:32;55388.47;;;-146.72;50.26
40994;BME280;26722;43.212;27.932;2023-02-05T11:35:48;55386.34;;;-146.72;50.22
40994;BME280;26722;43.212;27.932;2023-02-05T11:38:43;55418.00;;;-146.72;49.39
40994;BME280;26722;43.212;27.932;2023-02-05T11:41:12;55413.78;;;-146.72;49.21
40994;BME280;26722;43.212;27.932;2023-02-05T11:43:49;55399.00;;;-146.72;49.20
40994;BME280;26722;43.212;27.932;2023-02-05T11:46:19;55411.69;;;-146.72;48.94
40994;BME280;26722;43.212;27.932;2023-02-05T11:51:48;55394.78;;;-146.72;48.75
40994;BME280;26722;43.212;27.932;2023-02-05T11:54:22;55411.69;;;-146.72;48.83
40994;BME280;26722;43.212;27.932;2023-02-05T11:59:25;55394.78;;;-146.72;49.98
40994;BME280;26722;43.212;27.932;2023-02-05T12:01:51;55373.69;;;-146.72;49.97
40994;BME280;26722;43.212;27.932;2023-02-05T12:04:18;55407.47;;;-146.72;49.55
40994;BME280;26722;43.212;27.932;2023-02-05T12:06:58;55411.69;;;-146.72;48.30
40994;BME280;26722;43.212;27.932;2023-02-05T12:09:27;55420.13;;;-146.72;47.53
40994;BME280;26722;43.212;27.932;2023-02-05T12:14:43;55394.78;;;-146.72;48.60
40994;BME280;26722;43.212;27.932;2023-02-05T12:22:50;55394.78;;;-146.72;49.18
40994;BME280;26722;43.212;27.932;2023-02-05T12:41:54;55373.69;;;-146.72;47.92
40994;BME280;26722;43.212;27.932;2023-02-05T12:44:53;55380.00;;;-146.72;47.08
40994;BME280;26722;43.212;27.932;2023-02-05T12:50:39;55386.34;;;-146.72;47.90
40994;BME280;26722;43.212;27.932;2023-02-05T12:58:19;55405.34;;;-146.72;46.16
40994;BME280;26722;43.212;27.932;2023-02-05T13:00:59;55403.25;;;-146.72;46.23
40994;BME280;26722;43.212;27.932;2023-02-05T13:03:32;55424.34;;;-146.72;46.68
40994;BME280;26722;43.212;27.932;2023-02-05T13:06:09;55430.69;;;-146.72;46.80
40994;BME280;26722;43.212;27.932;2023-02-05T13:08:44;55401.13;;;-146.72;46.66
40994;BME280;26722;43.212;27.932;2023-02-05T13:11:32;55405.34;;;-146.72;46.05
40994;BME280;26722;43.212;27.932;2023-02-05T13:19:27;55403.25;;;-146.72;46.16
40994;BME280;26722;43.212;27.932;2023-02-05T13:21:56;55403.25;;;-146.72;46.41
40994;BME280;26722;43.212;27.932;2023-02-05T13:24:49;55428.56;;;-146.72;47.15
40994;BME280;26722;43.212;27.932;2023-02-05T13:27:39;55432.78;;;-146.72;46.27
40994;BME280;26722;43.212;27.932;2023-02-05T13:30:37;55403.25;;;-146.72;45.80
40994;BME280;26722;43.212;27.932;2023-02-05T13:33:06;55409.56;;;-146.72;45.83
40994;BME280;26722;43.212;27.932;2023-02-05T13:35:56;55403.25;;;-146.72;46.41
40994;BME280;26722;43.212;27.932;2023-02-05T13:55:44;55418.00;;;-146.72;44.90
40994;BME280;26722;43.212;27.932;2023-02-05T13:58:20;55424.34;;;-146.72;44.73
40994;BME280;26722;43.212;27.932;2023-02-05T14:00:55;55411.69;;;-146.72;44.10
40994;BME280;26722;43.212;27.932;2023-02-05T14:03:35;55437.03;;;-146.72;44.22
40994;BME280;26722;43.212;27.932;2023-02-05T14:06:28;55434.91;;;-146.72;44.33
40994;BME280;26722;43.212;27.932;2023-02-05T14:09:18;55428.56;;;-146.72;43.51
40994;BME280;26722;43.212;27.932;2023-02-05T14:11:59;55428.56;;;-146.72;44.08
40994;BME280;26722;43.212;27.932;2023-02-05T14:14:34;55439.13;;;-146.72;44.08
40994;BME280;26722;43.212;27.932;2023-02-05T14:17:02;55449.69;;;-146.72;44.80
40994;BME280;26722;43.212;27.932;2023-02-05T14:22:00;55447.56;;;-146.72;47.23
40994;BME280;26722;43.212;27.932;2023-02-05T14:24:39;55447.56;;;-146.72;47.64
40994;BME280;26722;43.212;27.932;2023-02-05T14:35:35;55470.81;;;-146.72;48.17
40994;BME280;26722;43.212;27.932;2023-02-05T14:38:32;55451.81;;;-146.72;48.19
40994;BME280;26722;43.212;27.932;2023-02-05T14:41:11;55439.13;;;-146.72;47.99